createdAt,value
2018-03-28T00:02:18.622Z,7.30
2018-03-28T00:04:46.230Z,7.80
2018-03-28T00:07:13.889Z,7.55
2018-03-28T00:09:41.499Z,6.63
2018-03-28T00:12:09.834Z,6.90
2018-03-28T00:14:38.244Z,7.60
2018-03-28T00:17:05.869Z,8.07
2018-03-28T00:19:33.513Z,8.33
2018-03-28T00:22:01.132Z,5.57
2018-03-28T00:24:28.797Z,7.10
2018-03-28T00:26:56.409Z,6.70
2018-03-28T00:29:24.061Z,7.07
2018-03-28T00:31:51.688Z,6.70
2018-03-28T00:34:19.343Z,5.60
2018-03-28T00:36:46.951Z,6.57
2018-03-28T00:39:14.602Z,6.90
2018-03-28T00:41:42.216Z,6.37
2018-03-28T00:44:10.238Z,6.60
2018-03-28T00:46:38.092Z,6.30
2018-03-28T00:49:05.865Z,6.60
2018-03-28T00:51:37.333Z,6.60
2018-03-28T00:54:05.163Z,6.07
2018-03-28T00:56:33.028Z,6.50
2018-03-28T00:59:00.651Z,6.10
2018-03-28T01:01:28.357Z,6.67
2018-03-28T01:03:56.008Z,7.25
2018-03-28T01:06:23.884Z,7.15
2018-03-28T01:08:51.537Z,7.33
2018-03-28T01:11:19.193Z,6.80
2018-03-28T01:13:46.820Z,7.50
2018-03-28T01:16:14.478Z,6.70
2018-03-28T01:18:42.392Z,6.90
2018-03-28T01:21:10.045Z,7.47
2018-03-28T01:23:38.537Z,6.10
2018-03-28T01:26:06.164Z,7.15
2018-03-28T01:28:33.813Z,7.33
2018-03-28T01:31:01.532Z,7.68
2018-03-28T01:33:29.185Z,6.70
2018-03-28T01:35:58.306Z,8.00
2018-03-28T01:38:26.716Z,7.53
2018-03-28T01:40:54.793Z,7.67
2018-03-28T01:43:22.411Z,7.63
2018-03-28T01:45:50.062Z,7.97
2018-03-28T01:48:18.485Z,7.32
2018-03-28T01:50:46.954Z,8.77
2018-03-28T01:53:14.606Z,8.00
2018-03-28T01:55:42.249Z,7.90
2018-03-28T01:58:11.033Z,8.73
2018-03-28T02:00:38.685Z,7.70
2018-03-28T02:03:07.108Z,8.30
2018-03-28T02:05:34.768Z,8.43
2018-03-28T02:08:02.379Z,9.10
2018-03-28T02:10:30.941Z,7.87
2018-03-28T02:12:58.573Z,8.50
2018-03-28T02:15:26.260Z,7.35
2018-03-28T02:17:53.905Z,8.03
2018-03-28T02:20:21.850Z,9.57
2018-03-28T02:22:49.506Z,7.45
2018-03-28T02:25:17.112Z,8.50
2018-03-28T02:27:47.057Z,8.20
2018-03-28T02:30:14.724Z,8.37
2018-03-28T02:32:42.341Z,9.33
2018-03-28T02:35:10.169Z,9.07
2018-03-28T02:37:37.779Z,8.53
2018-03-28T02:40:05.394Z,8.32
2018-03-28T02:42:33.066Z,8.80
2018-03-28T02:45:00.673Z,9.75
2018-03-28T02:47:29.087Z,8.70
2018-03-28T02:49:56.696Z,8.67
2018-03-28T02:52:24.345Z,8.93
2018-03-28T02:54:51.960Z,9.07
2018-03-28T02:57:20.296Z,9.50
2018-03-28T02:59:47.913Z,10.17
2018-03-28T03:02:15.573Z,9.90
2018-03-28T03:04:43.189Z,9.30
2018-03-28T03:07:11.412Z,8.43
2018-03-28T03:09:39.074Z,9.07
2018-03-28T03:12:06.685Z,8.40
2018-03-28T03:14:35.101Z,10.43
2018-03-28T03:17:02.713Z,10.77
2018-03-28T03:19:30.638Z,8.77
2018-03-28T03:21:58.248Z,9.80
2018-03-28T03:24:31.611Z,10.75
2018-03-28T03:27:05.510Z,10.07
2018-03-28T03:29:38.833Z,10.20
2018-03-28T03:32:11.453Z,12.50
2018-03-28T03:34:40.151Z,10.00
2018-03-28T03:37:07.856Z,10.80
2018-03-28T03:39:35.796Z,11.17
2018-03-28T03:42:03.449Z,10.03
2018-03-28T03:44:31.071Z,11.48
2018-03-28T03:46:58.738Z,10.30
2018-03-28T03:49:26.361Z,11.60
2018-03-28T03:51:54.025Z,10.63
2018-03-28T03:54:22.413Z,12.83
2018-03-28T03:56:50.040Z,11.47
2018-03-28T03:59:17.698Z,11.30
2018-03-28T04:01:45.344Z,12.37
2018-03-28T04:04:13.104Z,10.68
2018-03-28T04:06:40.721Z,10.90
2018-03-28T04:09:08.381Z,11.20
2018-03-28T04:11:36.042Z,11.67
2018-03-28T04:14:03.760Z,8.90
2018-03-28T04:16:31.381Z,11.97
2018-03-28T04:18:59.033Z,13.70
2018-03-28T04:21:26.695Z,10.40
2018-03-28T04:23:54.515Z,11.90
2018-03-28T04:26:22.165Z,11.47
2018-03-28T04:28:49.841Z,11.43
2018-03-28T04:31:17.780Z,11.70
2018-03-28T04:33:46.897Z,11.87
2018-03-28T04:36:16.683Z,10.27
2018-03-28T04:38:45.870Z,11.88
2018-03-28T04:41:13.618Z,12.30
2018-03-28T04:43:41.549Z,11.90
2018-03-28T04:46:09.994Z,13.40
2018-03-28T04:48:37.808Z,11.67
2018-03-28T04:51:05.473Z,13.13
2018-03-28T04:53:33.127Z,12.90
2018-03-28T04:56:01.247Z,11.20
2018-03-28T04:58:30.555Z,12.40
2018-03-28T05:00:58.213Z,13.67
2018-03-28T05:03:26.399Z,12.88
2018-03-28T05:05:54.046Z,11.48
2018-03-28T05:08:21.673Z,12.77
2018-03-28T05:10:49.456Z,12.05
2018-03-28T05:13:19.065Z,12.60
2018-03-28T05:15:47.002Z,13.07
2018-03-28T05:18:14.938Z,13.93
2018-03-28T05:20:42.592Z,12.17
2018-03-28T05:23:11.434Z,14.85
2018-03-28T05:25:39.671Z,12.57
2018-03-28T05:28:08.302Z,13.38
2018-03-28T05:30:35.938Z,13.60
2018-03-28T05:33:05.592Z,14.95
2018-03-28T05:35:34.925Z,14.67
2018-03-28T05:38:02.748Z,14.10
2018-03-28T05:40:30.649Z,14.50
2018-03-28T05:42:58.277Z,14.27
2018-03-28T05:45:26.916Z,12.67
2018-03-28T05:47:55.257Z,14.68
2018-03-28T05:50:22.883Z,14.63
2018-03-28T05:52:52.791Z,13.23
2018-03-28T05:55:20.553Z,15.77
2018-03-28T05:57:48.315Z,14.70
2018-03-28T06:00:15.938Z,11.37
2018-03-28T06:02:44.357Z,12.97
2018-03-28T06:05:12.607Z,16.50
2018-03-28T06:07:40.224Z,15.73
2018-03-28T06:10:08.891Z,15.00
2018-03-28T06:12:36.524Z,15.20
2018-03-28T06:15:04.193Z,16.47
2018-03-28T06:17:32.204Z,14.60
2018-03-28T06:20:00.934Z,15.43
2018-03-28T06:22:28.708Z,15.97
2018-03-28T06:24:56.378Z,15.33
2018-03-28T06:27:24.028Z,15.87
2018-03-28T06:29:51.908Z,13.37
2018-03-28T06:32:19.568Z,15.15
2018-03-28T06:34:47.221Z,13.40
2018-03-28T06:37:14.913Z,15.48
2018-03-28T06:39:42.654Z,15.10
2018-03-28T06:42:10.309Z,14.80
2018-03-28T06:44:37.937Z,14.67
2018-03-28T06:47:05.606Z,14.53
2018-03-28T06:49:33.274Z,15.67
2018-03-28T06:52:00.921Z,15.73
2018-03-28T06:54:28.614Z,14.80
2018-03-28T06:56:56.300Z,14.17
2018-03-28T06:59:23.992Z,14.20
2018-03-28T07:01:51.683Z,17.00
2018-03-28T07:04:19.761Z,12.02
2018-03-28T07:06:47.450Z,15.80
2018-03-28T07:09:15.197Z,14.27
2018-03-28T07:11:42.853Z,13.75
2018-03-28T07:14:10.517Z,13.38
2018-03-28T07:16:39.094Z,13.05
2018-03-28T07:19:06.748Z,13.82
2018-03-28T07:21:34.638Z,12.73
2018-03-28T07:24:02.311Z,13.93
2018-03-28T07:26:29.927Z,14.83
2018-03-28T07:28:57.582Z,12.18
2018-03-28T07:31:25.192Z,11.50
2018-03-28T07:33:52.846Z,11.80
2018-03-28T07:36:21.272Z,13.27
2018-03-28T07:38:49.047Z,12.00
2018-03-28T07:41:16.659Z,11.97
2018-03-28T07:43:44.881Z,11.98
2018-03-28T07:46:12.496Z,12.40
2018-03-28T07:48:41.123Z,13.13
2018-03-28T07:51:08.738Z,11.57
2018-03-28T07:53:36.396Z,12.37
2018-03-28T07:56:04.041Z,13.13
2018-03-28T07:58:32.484Z,11.48
2018-03-28T08:01:00.902Z,12.80
2018-03-28T08:03:28.561Z,11.90
2018-03-28T08:05:57.307Z,10.60
2018-03-28T08:08:24.966Z,11.57
2018-03-28T08:10:52.587Z,11.23
2018-03-28T08:13:20.254Z,12.18
2018-03-28T08:15:47.873Z,12.20
2018-03-28T08:18:15.533Z,11.54
2018-03-28T08:20:43.914Z,11.60
2018-03-28T08:23:11.558Z,12.68
2018-03-28T08:25:39.221Z,9.47
2018-03-28T08:28:06.877Z,10.73
2018-03-28T08:30:34.528Z,10.17
2018-03-28T08:33:02.303Z,12.73
2018-03-28T08:35:30.550Z,11.60
2018-03-28T08:37:58.222Z,9.67
2018-03-28T08:40:25.984Z,11.20
2018-03-28T08:42:53.643Z,9.60
2018-03-28T08:45:21.256Z,9.87
2018-03-28T08:47:48.913Z,9.50
2018-03-28T08:50:17.340Z,8.77
2018-03-28T08:52:44.989Z,8.30
2018-03-28T08:55:13.471Z,9.73
2018-03-28T08:57:41.143Z,8.37
2018-03-28T09:00:09.022Z,10.40
2018-03-28T09:02:37.017Z,9.77
2018-03-28T09:05:05.405Z,9.20
2018-03-28T09:07:33.066Z,7.50
2018-03-28T09:10:00.731Z,8.70
2018-03-28T09:12:28.349Z,8.88
2018-03-28T09:14:56.013Z,8.57
2018-03-28T09:17:23.862Z,9.45
2018-03-28T09:19:52.193Z,8.63
2018-03-28T09:22:20.652Z,8.60
2018-03-28T09:24:48.755Z,9.05
2018-03-28T09:27:16.465Z,10.48
2018-03-28T09:29:44.104Z,8.05
2018-03-28T09:32:11.763Z,9.43
2018-03-28T09:34:39.929Z,9.82
2018-03-28T09:37:07.846Z,8.88
2018-03-28T09:39:36.257Z,10.10
2018-03-28T09:42:03.913Z,6.50
2018-03-28T09:44:31.561Z,9.07
2018-03-28T09:46:59.212Z,9.85
2018-03-28T09:49:27.613Z,9.87
2018-03-28T09:51:55.262Z,8.67
2018-03-28T09:54:23.284Z,11.63
2018-03-28T09:56:51.242Z,11.70
2018-03-28T09:59:18.911Z,11.00
2018-03-28T10:01:52.052Z,11.77
2018-03-28T10:04:19.709Z,10.53
2018-03-28T10:06:47.424Z,12.60
2018-03-28T10:09:15.125Z,13.67
2018-03-28T10:11:42.737Z,11.77
2018-03-28T10:14:10.396Z,9.43
2018-03-28T10:16:38.018Z,12.00
2018-03-28T10:19:05.657Z,11.97
2018-03-28T10:21:34.074Z,10.80
2018-03-28T10:24:01.697Z,12.57
2018-03-28T10:26:29.351Z,11.20
2018-03-28T10:28:57.279Z,12.57
2018-03-28T10:31:24.932Z,12.47
2018-03-28T10:33:52.548Z,13.43
2018-03-28T10:36:21.271Z,12.30
2018-03-28T10:38:48.888Z,12.90
2018-03-28T10:41:16.553Z,11.93
2018-03-28T10:43:44.212Z,11.50
2018-03-28T10:46:12.625Z,13.77
2018-03-28T10:48:40.286Z,12.20
2018-03-28T10:51:08.097Z,9.00
2018-03-28T10:53:35.756Z,12.00
2018-03-28T10:56:03.691Z,12.57
2018-03-28T10:58:31.349Z,11.48
2018-03-28T11:00:59.137Z,12.50
2018-03-28T11:03:26.859Z,12.10
2018-03-28T11:05:54.483Z,14.30
2018-03-28T11:08:22.880Z,13.33
2018-03-28T11:10:50.539Z,13.93
2018-03-28T11:13:18.154Z,14.80
2018-03-28T11:15:45.813Z,12.77
2018-03-28T11:18:13.438Z,16.60
2018-03-28T11:20:41.066Z,15.63
2018-03-28T11:23:08.726Z,15.30
2018-03-28T11:25:37.161Z,14.90
2018-03-28T11:28:04.808Z,13.40
2018-03-28T11:30:32.429Z,14.20
2018-03-28T11:33:00.109Z,15.50
2018-03-28T11:35:27.727Z,15.10
2018-03-28T11:37:55.392Z,14.57
2018-03-28T11:40:23.038Z,17.03
2018-03-28T11:42:50.737Z,16.42
2018-03-28T11:45:18.650Z,13.60
2018-03-28T11:47:46.310Z,12.83
2018-03-28T11:50:13.934Z,16.47
2018-03-28T11:52:41.827Z,15.00
2018-03-28T11:55:09.509Z,15.17
2018-03-28T11:57:37.129Z,12.55
2018-03-28T12:00:05.193Z,16.17
2018-03-28T12:02:32.808Z,14.70
2018-03-28T12:05:00.472Z,14.83
2018-03-28T12:07:28.105Z,14.70
2018-03-28T12:09:55.764Z,13.60
2018-03-28T12:12:23.427Z,16.93
2018-03-28T12:14:51.080Z,17.03
2018-03-28T12:17:18.858Z,15.40
2018-03-28T12:19:46.521Z,13.80
2018-03-28T12:22:14.144Z,15.60
2018-03-28T12:24:41.834Z,14.30
2018-03-28T12:27:09.453Z,14.57
2018-03-28T12:29:37.110Z,15.85
2018-03-28T12:32:05.676Z,13.47
2018-03-28T12:34:33.502Z,15.30
2018-03-28T12:37:01.261Z,15.50
2018-03-28T12:39:28.912Z,14.57
2018-03-28T12:41:56.790Z,14.20
2018-03-28T12:44:24.606Z,15.63
2018-03-28T12:46:52.319Z,14.10
2018-03-28T12:49:19.977Z,14.63
2018-03-28T12:51:47.653Z,17.23
2018-03-28T12:54:15.309Z,15.57
2018-03-28T12:56:42.972Z,15.93
2018-03-28T12:59:10.822Z,16.10
2018-03-28T13:01:38.476Z,15.53
2018-03-28T13:04:06.142Z,14.13
2018-03-28T13:06:33.804Z,17.67
2018-03-28T13:09:01.469Z,16.33
2018-03-28T13:11:30.692Z,17.67
2018-03-28T13:13:58.324Z,17.07
2018-03-28T13:16:25.993Z,15.77
2018-03-28T13:18:53.848Z,15.20
2018-03-28T13:21:21.513Z,12.87
2018-03-28T13:23:49.169Z,15.02
2018-03-28T13:26:16.849Z,15.57
2018-03-28T13:28:44.469Z,17.30
2018-03-28T13:31:12.085Z,14.90
2018-03-28T13:33:40.687Z,16.10
2018-03-28T13:36:08.298Z,15.40
2018-03-28T13:38:35.922Z,16.40
2018-03-28T13:41:03.583Z,16.58
2018-03-28T13:43:31.202Z,17.73
2018-03-28T13:45:59.585Z,18.08
2018-03-28T13:48:28.016Z,14.73
2018-03-28T13:50:55.629Z,15.90
2018-03-28T13:53:23.297Z,17.77
2018-03-28T13:55:51.617Z,16.20
2018-03-28T13:58:19.280Z,17.20
2018-03-28T14:00:47.643Z,17.85
2018-03-28T14:03:15.265Z,16.93
2018-03-28T14:05:42.925Z,18.20
2018-03-28T14:08:11.645Z,15.17
2018-03-28T14:10:39.321Z,12.30
2018-03-28T14:13:06.978Z,16.50
2018-03-28T14:15:34.644Z,16.92
2018-03-28T14:18:02.288Z,18.93
2018-03-28T14:20:29.912Z,16.62
2018-03-28T14:22:58.176Z,16.13
2018-03-28T14:25:26.558Z,17.00
2018-03-28T14:27:54.238Z,18.23
2018-03-28T14:30:21.901Z,18.20
2018-03-28T14:32:49.585Z,18.87
2018-03-28T14:35:17.365Z,18.47
2018-03-28T14:37:44.993Z,16.95
2018-03-28T14:40:14.382Z,16.37
2018-03-28T14:42:54.583Z,15.70
2018-03-28T14:45:09.736Z,13.93
2018-03-28T14:47:37.611Z,16.10
2018-03-28T14:50:05.949Z,14.60
2018-03-28T14:52:33.560Z,18.73
2018-03-28T14:55:01.229Z,16.07
2018-03-28T14:57:29.656Z,16.00
2018-03-28T14:59:57.322Z,16.27
2018-03-28T15:02:24.974Z,17.97
2018-03-28T15:04:52.593Z,19.90
2018-03-28T15:07:21.246Z,17.70
2018-03-28T15:09:48.906Z,17.12
2018-03-28T15:12:16.522Z,17.70
2018-03-28T15:14:44.168Z,20.33
2018-03-28T15:17:11.817Z,18.50
2018-03-28T15:19:39.439Z,19.60
2018-03-28T15:22:07.101Z,18.70
2018-03-28T15:24:34.763Z,19.60
2018-03-28T15:27:02.400Z,18.87
2018-03-28T15:29:30.062Z,19.65
2018-03-28T15:31:57.681Z,18.77
2018-03-28T15:34:26.108Z,20.30
2018-03-28T15:36:53.738Z,17.70
2018-03-28T15:39:21.398Z,21.40
2018-03-28T15:41:49.028Z,19.90
2018-03-28T15:44:17.486Z,22.45
2018-03-28T15:46:46.056Z,19.50
2018-03-28T15:49:13.723Z,21.87
2018-03-28T15:51:42.033Z,21.00
2018-03-28T15:54:09.695Z,20.42
2018-03-28T15:56:38.125Z,19.48
2018-03-28T15:59:05.779Z,24.27
2018-03-28T16:01:33.429Z,24.10
2018-03-28T16:04:01.054Z,21.37
2018-03-28T16:06:28.935Z,22.50
2018-03-28T16:08:56.554Z,22.00
2018-03-28T16:11:24.232Z,23.30
2018-03-28T16:13:52.622Z,23.53
2018-03-28T16:16:20.756Z,21.42
2018-03-28T16:18:48.428Z,20.23
2018-03-28T16:21:16.098Z,21.37
2018-03-28T16:23:43.760Z,21.80
2018-03-28T16:26:12.180Z,21.87
2018-03-28T16:28:39.805Z,22.10
2018-03-28T16:31:08.184Z,23.20
2018-03-28T16:33:36.777Z,25.33
2018-03-28T16:36:04.404Z,23.05
2018-03-28T16:38:33.003Z,22.20
2018-03-28T16:41:01.610Z,25.80
2018-03-28T16:43:29.318Z,22.50
2018-03-28T16:45:57.188Z,23.35
2018-03-28T16:48:24.875Z,23.07
2018-03-28T16:50:52.722Z,22.17
2018-03-28T16:53:20.395Z,22.85
2018-03-28T16:55:48.082Z,26.37
2018-03-28T16:58:15.702Z,23.62
2018-03-28T17:00:44.125Z,22.87
2018-03-28T17:03:11.762Z,21.90
2018-03-28T17:05:41.279Z,24.20
2018-03-28T17:08:10.981Z,22.43
2018-03-28T17:10:40.248Z,21.30
2018-03-28T17:13:08.016Z,18.00
2018-03-28T17:15:37.488Z,20.92
2018-03-28T17:18:06.075Z,19.30
2018-03-28T17:20:34.240Z,19.27
2018-03-28T17:23:02.817Z,19.50
2018-03-28T17:25:30.590Z,20.27
2018-03-28T17:27:58.212Z,17.58
2018-03-28T17:30:25.864Z,20.40
2018-03-28T17:32:54.253Z,19.40
2018-03-28T17:35:21.927Z,19.50
2018-03-28T17:37:49.887Z,21.63
2018-03-28T17:40:23.199Z,19.37
2018-03-28T17:42:57.916Z,19.50
2018-03-28T17:45:25.881Z,20.67
2018-03-28T17:47:53.699Z,19.75
2018-03-28T17:50:22.352Z,15.50
2018-03-28T17:52:50.465Z,20.15
2018-03-28T17:55:18.878Z,17.08
2018-03-28T17:57:46.537Z,14.53
2018-03-28T18:00:14.157Z,19.00
2018-03-28T18:02:43.920Z,18.27
2018-03-28T18:05:11.563Z,16.47
2018-03-28T18:07:39.232Z,18.20
2018-03-28T18:10:11.721Z,20.00
2018-03-28T18:12:41.445Z,18.35
2018-03-28T18:15:10.505Z,21.77
2018-03-28T18:17:38.173Z,20.33
2018-03-28T18:20:07.546Z,19.00
2018-03-28T18:22:43.043Z,19.90
2018-03-28T18:25:12.236Z,20.67
2018-03-28T18:27:42.261Z,18.87
2018-03-28T18:30:10.920Z,19.03
2018-03-28T18:32:39.566Z,21.98
2018-03-28T18:35:09.751Z,18.00
2018-03-28T18:37:39.786Z,17.37
2018-03-28T18:40:07.518Z,17.43
2018-03-28T18:42:35.941Z,20.02
2018-03-28T18:45:03.588Z,20.27
2018-03-28T18:47:31.923Z,19.70
2018-03-28T18:50:00.601Z,22.13
2018-03-28T18:52:28.213Z,21.80
2018-03-28T18:54:56.045Z,20.35
2018-03-28T18:57:23.660Z,19.80
2018-03-28T18:59:57.979Z,19.40
2018-03-28T19:02:29.108Z,20.30
2018-03-28T19:05:02.372Z,19.87
2018-03-28T19:07:34.050Z,14.33
2018-03-28T19:10:07.171Z,18.87
2018-03-28T19:12:38.191Z,20.35
2018-03-28T19:15:09.243Z,19.60
2018-03-28T19:17:37.298Z,21.90
2018-03-28T19:20:04.925Z,19.93
2018-03-28T19:22:32.543Z,22.00
2018-03-28T19:25:00.221Z,22.07
2018-03-28T19:27:27.990Z,22.17
2018-03-28T19:29:55.654Z,17.80
2018-03-28T19:32:23.312Z,18.25
2018-03-28T19:34:50.954Z,22.03
2018-03-28T19:37:18.609Z,19.90
2018-03-28T19:39:46.264Z,22.17
2018-03-28T19:42:14.041Z,22.77
2018-03-28T19:44:41.720Z,17.48
2018-03-28T19:47:12.821Z,21.77
2018-03-28T19:49:41.548Z,21.87
2018-03-28T19:52:09.306Z,22.87
2018-03-28T19:54:36.962Z,23.47
2018-03-28T19:57:04.585Z,24.10
2018-03-28T19:59:32.249Z,20.00
2018-03-28T20:01:59.869Z,25.20
2018-03-28T20:04:32.107Z,23.00
2018-03-28T20:06:59.742Z,21.27
2018-03-28T20:09:28.731Z,21.08
2018-03-28T20:11:58.418Z,21.40
2018-03-28T20:14:26.336Z,20.83
2018-03-28T20:16:53.963Z,20.83
2018-03-28T20:19:21.621Z,18.90
2018-03-28T20:21:49.245Z,24.33
2018-03-28T20:24:17.657Z,20.52
2018-03-28T20:26:45.278Z,22.60
2018-03-28T20:29:13.716Z,19.17
2018-03-28T20:31:41.477Z,23.75
2018-03-28T20:34:09.095Z,22.93
2018-03-28T20:36:36.759Z,14.60
2018-03-28T20:39:04.424Z,22.80
2018-03-28T20:41:32.085Z,21.77
2018-03-28T20:43:59.738Z,24.47
2018-03-28T20:46:28.597Z,21.77
2018-03-28T20:48:56.449Z,23.55
2018-03-28T20:51:24.113Z,21.70
2018-03-28T20:53:53.249Z,23.20
2018-03-28T20:56:20.909Z,22.50
2018-03-28T20:58:48.529Z,20.73
2018-03-28T21:01:17.873Z,22.52
2018-03-28T21:03:47.183Z,18.30
2018-03-28T21:06:15.776Z,20.15
2018-03-28T21:08:45.545Z,18.40
2018-03-28T21:11:13.204Z,18.52
2018-03-28T21:13:41.603Z,18.20
2018-03-28T21:16:09.605Z,17.87
2018-03-28T21:18:38.569Z,20.53
2018-03-28T21:21:06.211Z,18.50
2018-03-28T21:23:35.185Z,20.70
2018-03-28T21:26:03.051Z,21.87
2018-03-28T21:28:30.726Z,20.27
2018-03-28T21:30:58.355Z,19.62
2018-03-28T21:33:26.576Z,17.63
2018-03-28T21:35:54.193Z,15.20
2018-03-28T21:38:21.849Z,20.75
2018-03-28T21:40:49.493Z,21.13
2018-03-28T21:43:17.467Z,19.25
2018-03-28T21:45:45.130Z,18.17
2018-03-28T21:48:13.413Z,18.57
2018-03-28T21:50:41.077Z,20.37
2018-03-28T21:53:08.690Z,19.50
2018-03-28T21:55:36.857Z,14.80
2018-03-28T21:58:04.558Z,19.60
2018-03-28T22:00:32.393Z,20.83
2018-03-28T22:03:00.021Z,18.67
2018-03-28T22:05:27.642Z,20.40
2018-03-28T22:07:55.390Z,16.93
2018-03-28T22:10:23.056Z,17.87
2018-03-28T22:12:50.709Z,20.00
2018-03-28T22:15:18.336Z,18.83
2018-03-28T22:17:46.133Z,21.27
2018-03-28T22:20:13.768Z,18.10
2018-03-28T22:22:41.449Z,18.80
2018-03-28T22:25:09.093Z,17.03
2018-03-28T22:27:36.749Z,20.53
2018-03-28T22:30:04.420Z,22.33
2018-03-28T22:32:32.069Z,20.45
2018-03-28T22:34:59.681Z,18.13
2018-03-28T22:37:27.344Z,18.63
2018-03-28T22:39:55.727Z,14.63
2018-03-28T22:42:23.719Z,18.83
2018-03-28T22:44:51.381Z,19.73
2018-03-28T22:47:19.197Z,19.10
2018-03-28T22:49:46.853Z,19.70
2018-03-28T22:52:14.813Z,16.77
2018-03-28T22:54:42.473Z,18.27
2018-03-28T22:57:10.112Z,20.50
2018-03-28T22:59:37.777Z,19.02
2018-03-28T23:02:05.446Z,19.20
2018-03-28T23:04:33.118Z,19.00
2018-03-28T23:07:00.752Z,21.77
2018-03-28T23:09:29.101Z,19.40
2018-03-28T23:11:57.486Z,19.98
2018-03-28T23:14:25.145Z,20.12
2018-03-28T23:16:52.767Z,20.88
2018-03-28T23:19:20.438Z,18.70
2018-03-28T23:21:48.189Z,17.85
2018-03-28T23:24:15.807Z,18.00
2018-03-28T23:26:43.465Z,17.98
2018-03-28T23:29:11.091Z,18.70
2018-03-28T23:31:38.746Z,19.60
2018-03-28T23:34:06.359Z,16.87
2018-03-28T23:36:34.008Z,19.77
2018-03-28T23:39:02.304Z,18.20
2018-03-28T23:41:30.080Z,18.30
2018-03-28T23:43:57.696Z,17.37
2018-03-28T23:46:25.360Z,17.50
2018-03-28T23:48:52.973Z,15.60
2018-03-28T23:51:20.629Z,15.83
2018-03-28T23:53:48.246Z,16.27
2018-03-28T23:56:15.914Z,16.93
2018-03-28T23:58:43.565Z,15.10
